Terminal Aerodrome Forecast
Issued by NWS

Home | Current Version | Previous Version | Graphics & Text | Print | Product List | Glossary On
Versions: 1 2 3 4 5 6 7 8 9 10 11 12 13 14 15 16
000
FTUS43 KGRB 211500 AAA
TAFATW
TAF AMD
KATW 211527Z 2115/2212 22008KT 6SM BR VCSH BKN035 OVC080
      TEMPO 2118/2122 3SM -TSRA BR BKN025CB OVC040
     FM212200 32012KT P6SM SCT025 BKN040
     FM220200 33013G21KT P6SM SCT025=

USA.gov is the U.S. government's official web portal to all federal, state and local government web resources and services.